Time;durP1;ratioP1;P1;durP2;ratioP2;P2;SDS_P1;SDS_P2;PMS_P1;PMS_P2;Temp;Humidity;BMP_temperature;BMP_pressure;BME280_temperature;BME280_humidity;BME280_pressure;Samples;Min_cycle;Max_cycle;Signal;HPM_P1;HPM_P2
2021/05/15 00:01:41;;;;;;;18.13;10.95;;;10.10;99.90;;;;;;6113080;23;20046;-91
2021/05/15 00:04:10;;;;;;;16.92;10.82;;;10.20;99.90;;;;;;6113292;23;20049;-91
2021/05/15 00:06:38;;;;;;;19.73;10.95;;;10.20;99.90;;;;;;6089816;23;20073;-92
2021/05/15 00:09:07;;;;;;;16.40;11.10;;;10.20;99.90;;;;;;6112974;23;20037;-92
2021/05/15 00:11:35;;;;;;;16.70;10.88;;;10.20;99.90;;;;;;6089419;23;20042;-92
2021/05/15 00:14:04;;;;;;;14.18;9.77;;;10.10;99.90;;;;;;6115453;23;20050;-91
2021/05/15 00:16:33;;;;;;;15.50;10.73;;;10.20;99.90;;;;;;6088432;23;20046;-92
2021/05/15 00:19:00;;;;;;;21.02;13.23;;;10.20;99.90;;;;;;6136996;23;20255;-90
2021/05/15 00:21:31;;;;;;;16.15;10.90;;;10.20;99.90;;;;;;6137358;23;20045;-88
2021/05/15 00:24:02;;;;;;;14.20;9.68;;;10.40;99.90;;;;;;6115511;23;20038;-88
2021/05/15 00:26:32;;;;;;;15.20;10.63;;;10.60;99.90;;;;;;6090646;23;20054;-87
2021/05/15 00:29:13;;;;;;;17.83;10.50;;;10.60;99.90;;;;;;6096758;23;20011;-87
2021/05/15 00:31:40;;;;;;;13.23;10.23;;;10.80;99.90;;;;;;6102084;23;20018;-88
2021/05/15 00:34:20;;;;;;;12.77;9.55;;;10.80;99.90;;;;;;6156478;23;20016;-89
2021/05/15 00:36:51;;;;;;;14.52;10.38;;;10.80;99.90;;;;;;6154869;23;20020;-87
2021/05/15 07:02:50;;;;;;;4.55;1.30;;;13.40;99.90;;;;;;5998280;23;20019;31
2021/05/15 08:36:44;;;;;;;4.03;1.20;;;14.80;99.90;;;;;;6045106;23;20006;-92
2021/05/15 08:48:00;;;;;;;5.28;1.10;;;15.20;99.90;;;;;;6030363;23;20188;-89
2021/05/15 08:50:30;;;;;;;3.78;1.17;;;15.40;99.90;;;;;;6067838;23;20070;-89
2021/05/15 08:53:02;;;;;;;4.22;1.20;;;15.40;99.90;;;;;;6064344;23;20026;-89
2021/05/15 09:07:52;;;;;;;3.65;1.27;;;15.40;99.90;;;;;;6021351;23;20006;-87
2021/05/15 09:10:23;;;;;;;2.53;0.82;;;15.50;99.90;;;;;;6031201;23;20040;-88
2021/05/15 10:26:58;;;;;;;1.42;0.80;;;17.20;95.90;;;;;;6098070;23;20030;-96
2021/05/15 10:35:38;;;;;;;4.38;1.00;;;17.80;94.00;;;;;;6001912;23;20023;-96
2021/05/15 10:38:23;;;;;;;1.40;0.80;;;19.00;86.90;;;;;;6104920;23;20009;-96
2021/05/15 10:41:08;;;;;;;2.80;0.70;;;19.60;77.40;;;;;;6107432;23;20092;-96
2021/05/15 10:44:10;;;;;;;1.60;0.80;;;20.70;70.60;;;;;;6149606;23;20021;-96
2021/05/15 10:46:48;;;;;;;6.03;1.00;;;21.70;58.60;;;;;;6125636;23;20014;-96
2021/05/15 10:49:20;;;;;;;1.75;0.70;;;22.10;55.20;;;;;;6126424;23;20018;-96
2021/05/15 10:51:55;;;;;;;3.17;0.40;;;22.20;55.10;;;;;;6130393;23;20003;-97
2021/05/15 10:54:38;;;;;;;1.30;0.70;;;21.10;54.10;;;;;;6011311;23;20031;-81
2021/05/15 11:00:25;;;;;;;5.28;0.70;;;19.60;58.50;;;;;;5928742;23;21557;-81
2021/05/15 11:03:02;;;;;;;1.30;0.47;;;20.90;56.90;;;;;;5991010;23;20005;-80
2021/05/15 11:08:29;;;;;;;0.75;0.30;;;23.20;50.10;;;;;;6118648;23;20038;-79
2021/05/15 11:11:09;;;;;;;4.88;0.70;;;23.70;46.70;;;;;;6107587;23;19998;-96
2021/05/15 11:22:17;;;;;;;2.45;0.80;;;21.90;50.70;;;;;;6085169;23;20006;-96
2021/05/15 11:46:05;;;;;;;4.68;0.75;;;18.90;56.70;;;;;;5975575;23;20038;-85
2021/05/15 11:54:47;;;;;;;1.08;0.50;;;20.80;51.80;;;;;;5948806;23;21307;31
2021/05/15 11:57:26;;;;;;;1.45;0.60;;;20.70;51.50;;;;;;6018505;23;20056;-81
2021/05/15 12:00:17;;;;;;;;;;;;;;;;;;;;;
2021/05/15 12:05:43;;;;;;;2.33;0.75;;;21.10;49.10;;;;;;6009473;23;20006;-81
2021/05/15 12:08:17;;;;;;;6.72;1.13;;;20.60;51.40;;;;;;6108900;23;19994;-79
2021/05/15 12:10:48;;;;;;;1.63;0.40;;;20.30;51.90;;;;;;6132774;23;19998;-81
2021/05/15 12:13:29;;;;;;;0.47;0.25;;;19.20;53.70;;;;;;6157548;23;20005;-81
2021/05/15 12:16:08;;;;;;;1.27;0.52;;;18.10;56.70;;;;;;6109789;23;19998;-81
2021/05/15 12:19:01;;;;;;;0.98;0.45;;;18.00;57.90;;;;;;6085685;23;19994;-81
2021/05/15 12:21:36;;;;;;;4.40;0.60;;;18.20;58.20;;;;;;6133436;23;19998;-81
2021/05/15 12:24:08;;;;;;;0.75;0.52;;;18.70;58.50;;;;;;5916256;23;20018;-89
2021/05/15 12:29:44;;;;;;;1.38;0.50;;;19.40;56.20;;;;;;6084943;23;20010;-80
2021/05/15 12:46:49;;;;;;;1.42;0.63;;;19.40;53.80;;;;;;6020601;23;20006;-95
2021/05/15 13:25:39;;;;;;;2.97;0.70;;;17.90;65.90;;;;;;6136089;23;20017;-96
2021/05/15 13:28:15;;;;;;;1.52;0.52;;;18.30;64.10;;;;;;6128305;23;20025;-96
2021/05/15 13:30:52;;;;;;;1.73;0.60;;;19.00;63.00;;;;;;6126268;23;20021;-96
2021/05/15 13:33:29;;;;;;;2.50;0.68;;;20.10;59.60;;;;;;6103359;23;20018;-96
2021/05/15 13:35:57;;;;;;;1.27;0.90;;;20.70;56.80;;;;;;6124432;23;20024;-96
2021/05/15 13:38:26;;;;;;;2.45;1.00;;;21.10;56.30;;;;;;6128396;23;20017;-96
2021/05/15 13:40:55;;;;;;;1.80;0.80;;;22.90;53.50;;;;;;6097855;23;20329;-95
2021/05/15 13:43:29;;;;;;;2.60;0.80;;;24.90;48.70;;;;;;6123517;23;20013;-95
2021/05/15 13:46:06;;;;;;;3.00;0.60;;;25.30;46.00;;;;;;6125929;23;20010;-96
2021/05/15 13:48:36;;;;;;;1.42;0.65;;;24.60;45.40;;;;;;6106006;23;20018;-95
2021/05/15 13:51:06;;;;;;;0.57;0.30;;;23.90;47.00;;;;;;6130444;23;20013;-95
2021/05/15 13:53:34;;;;;;;3.17;0.50;;;23.30;48.20;;;;;;6107468;23;20002;-96
2021/05/15 13:56:07;;;;;;;2.50;0.70;;;23.10;48.90;;;;;;6106812;23;20018;-96
2021/05/15 13:58:35;;;;;;;2.53;0.70;;;23.80;48.50;;;;;;6129871;23;20013;-95
2021/05/15 14:01:04;;;;;;;2.70;0.60;;;25.50;46.30;;;;;;6098172;23;20017;-96
2021/05/15 14:03:33;;;;;;;0.63;0.40;;;26.70;43.90;;;;;;6098773;23;20014;-96
2021/05/15 14:06:01;;;;;;;4.82;0.60;;;26.80;42.40;;;;;;6104300;23;20022;-96
2021/05/15 14:08:34;;;;;;;;;;;25.30;43.20;;;;;;6055502;23;20006;-96
2021/05/15 14:11:46;;;;;;;1.15;0.60;;;23.20;47.90;;;;;;6096569;23;19913;-96
2021/05/15 14:14:14;;;;;;;0.90;0.60;;;22.50;49.10;;;;;;6072587;23;20046;-96
2021/05/15 14:16:42;;;;;;;2.03;0.75;;;21.60;51.90;;;;;;6048880;23;20018;-96
2021/05/15 14:19:10;;;;;;;0.95;0.60;;;21.60;53.00;;;;;;6048446;23;20014;-96
2021/05/15 14:21:44;;;;;;;1.77;0.77;;;23.00;50.20;;;;;;6073853;23;20007;-96
2021/05/15 14:24:17;;;;;;;3.50;0.60;;;23.10;50.40;;;;;;6049112;23;20019;-97
2021/05/15 14:26:46;;;;;;;1.20;0.50;;;22.80;49.20;;;;;;6043345;23;20125;-96
2021/05/15 14:29:14;;;;;;;2.10;0.70;;;24.10;48.30;;;;;;6088214;23;20022;-96
2021/05/15 14:31:42;;;;;;;1.10;0.55;;;23.60;46.50;;;;;;6018620;23;20014;-96
2021/05/15 14:34:10;;;;;;;1.70;0.60;;;23.60;47.30;;;;;;6089370;23;20010;-96
2021/05/15 14:36:39;;;;;;;0.90;0.60;;;25.10;45.50;;;;;;6073594;23;20002;-96
2021/05/15 14:39:09;;;;;;;2.15;0.60;;;24.50;44.50;;;;;;6049670;23;20006;-96
2021/05/15 14:44:29;;;;;;;3.22;0.80;;;21.90;49.20;;;;;;6053481;23;20215;-96
2021/05/15 14:46:59;;;;;;;3.25;0.63;;;22.40;48.20;;;;;;6128145;23;20017;-96
2021/05/15 14:49:27;;;;;;;1.27;0.45;;;23.50;45.40;;;;;;6102898;23;20018;-96
2021/05/15 14:51:54;;;;;;;1.02;0.50;;;24.40;44.10;;;;;;6104020;23;20009;-96
2021/05/15 14:54:24;;;;;;;0.55;0.38;;;22.80;43.70;;;;;;6105161;23;20016;-96
2021/05/15 14:56:54;;;;;;;1.80;0.55;;;21.30;48.20;;;;;;6082130;23;20010;-96
2021/05/15 14:59:26;;;;;;;6.07;1.02;;;20.90;49.90;;;;;;6129415;23;20025;-96
2021/05/15 15:07:48;;;;;;;1.98;0.60;;;20.30;50.90;;;;;;6110190;23;20054;-94
2021/05/15 15:10:19;;;;;;;1.80;0.70;;;20.10;50.70;;;;;;6062276;23;20035;-89
2021/05/15 15:15:51;;;;;;;2.47;0.52;;;19.80;52.20;;;;;;6060012;23;20017;-81
2021/05/15 15:18:22;;;;;;;;;;;19.90;52.40;;;;;;6080440;23;20006;-80
2021/05/15 15:21:07;;;;;;;1.23;0.63;;;20.30;51.70;;;;;;6066955;23;19913;-81
2021/05/15 15:23:41;;;;;;;3.50;1.27;;;20.40;51.70;;;;;;6103423;23;20002;-81
2021/05/15 15:26:09;;;;;;;3.63;0.70;;;19.90;52.70;;;;;;5973522;23;21301;-83
2021/05/15 15:28:38;;;;;;;2.25;0.70;;;19.10;54.40;;;;;;5969855;23;20045;-84
2021/05/15 15:34:06;;;;;;;1.90;0.70;;;19.00;55.90;;;;;;6124465;23;20017;-96
2021/05/15 15:45:25;;;;;;;1.60;0.57;;;18.60;57.50;;;;;;5944801;23;20021;-81
2021/05/15 15:47:54;;;;;;;1.40;0.52;;;18.80;57.40;;;;;;6102218;23;19990;-96
2021/05/15 15:56:30;;;;;;;1.25;0.70;;;19.40;59.10;;;;;;6057649;23;20022;-81
2021/05/15 16:05:26;;;;;;;1.30;0.60;;;19.10;61.10;;;;;;6083667;23;20075;-96
2021/05/15 16:08:05;;;;;;;0.75;0.57;;;19.00;62.20;;;;;;6103447;23;20014;-95
2021/05/15 16:10:42;;;;;;;1.33;0.50;;;19.00;61.60;;;;;;6103653;23;20022;-96
2021/05/15 16:13:18;;;;;;;1.30;0.60;;;18.90;61.90;;;;;;6087978;23;20006;-96
2021/05/15 16:15:51;;;;;;;1.63;0.60;;;18.90;62.30;;;;;;6109666;23;20014;-96
2021/05/15 16:18:26;;;;;;;1.58;0.70;;;18.90;63.10;;;;;;6109278;23;20010;-96
2021/05/15 16:21:01;;;;;;;3.97;1.20;;;18.90;64.10;;;;;;6109001;23;20014;-96
2021/05/15 16:23:30;;;;;;;2.33;0.80;;;19.70;62.60;;;;;;6080653;23;20022;-96
2021/05/15 16:26:11;;;;;;;3.10;0.60;;;20.80;59.70;;;;;;6102024;23;20007;-96
2021/05/15 16:28:45;;;;;;;3.15;0.90;;;20.90;59.00;;;;;;6077408;23;20063;-96
2021/05/15 16:31:24;;;;;;;2.50;1.00;;;20.90;58.80;;;;;;6101286;23;20041;-96
2021/05/15 16:34:00;;;;;;;1.88;0.93;;;20.10;60.60;;;;;;6101825;23;20022;-96
2021/05/15 16:36:29;;;;;;;2.35;1.15;;;19.30;63.40;;;;;;6077260;23;20018;-96
2021/05/15 16:38:58;;;;;;;1.60;0.80;;;19.00;65.20;;;;;;6100600;23;20010;-96
2021/05/15 16:41:26;;;;;;;;;;;18.70;67.60;;;;;;6102225;23;20017;-96
2021/05/15 16:43:58;;;;;;;2.35;1.00;;;18.40;69.10;;;;;;6125078;23;19924;-96
2021/05/15 16:46:29;;;;;;;3.30;1.30;;;18.30;71.40;;;;;;6076957;23;20009;-96
2021/05/15 16:49:06;;;;;;;4.45;1.10;;;18.10;73.80;;;;;;6076706;23;20014;-96
2021/05/15 16:51:42;;;;;;;2.42;0.90;;;18.00;75.40;;;;;;6101340;23;20034;-96
2021/05/15 16:54:13;;;;;;;2.53;1.00;;;17.80;78.70;;;;;;6078861;23;20018;-96
2021/05/15 16:56:44;;;;;;;4.13;1.13;;;17.70;81.00;;;;;;6149923;23;20025;-96
2021/05/15 16:59:16;;;;;;;2.15;0.80;;;17.60;83.70;;;;;;6093427;23;20010;-96
2021/05/15 17:17:32;;;;;;;4.47;2.53;;;11.90;99.90;;;;;;6055765;23;20023;-91
2021/05/15 17:20:12;;;;;;;4.07;2.00;;;13.00;99.90;;;;;;6051681;23;20054;-92
2021/05/15 17:22:39;;;;;;;5.13;2.67;;;14.20;99.90;;;;;;6005948;23;20019;-91
2021/05/15 17:25:11;;;;;;;13.13;6.88;;;15.20;99.90;;;;;;6034573;23;20015;-90
2021/05/15 17:27:38;;;;;;;5.82;2.33;;;15.30;99.90;;;;;;6010058;23;20239;-91
2021/05/15 17:30:09;;;;;;;3.45;2.22;;;15.00;99.90;;;;;;6036580;23;20237;-89
2021/05/15 17:32:45;;;;;;;4.13;1.50;;;14.90;99.90;;;;;;6038632;23;20015;-90
2021/05/15 17:35:13;;;;;;;4.57;1.85;;;14.70;99.90;;;;;;6008178;23;20442;-91
2021/05/15 17:37:46;;;;;;;3.28;1.63;;;14.40;99.90;;;;;;6030318;23;20043;-91
2021/05/15 17:40:17;;;;;;;2.95;1.70;;;14.10;99.90;;;;;;6029589;23;20363;-91
2021/05/15 17:42:45;;;;;;;9.18;2.38;;;14.00;99.90;;;;;;6005841;23;20015;-92
2021/05/15 17:45:18;;;;;;;4.45;2.38;;;13.90;99.90;;;;;;6030091;23;20072;-91
2021/05/15 17:47:47;;;;;;;5.03;2.70;;;13.70;99.90;;;;;;6030356;23;20011;-92
2021/05/15 17:50:17;;;;;;;5.85;2.60;;;13.70;99.90;;;;;;6032013;23;20022;-91
2021/05/15 17:52:48;;;;;;;11.13;3.83;;;13.70;99.90;;;;;;6032085;23;20018;-92
2021/05/15 17:55:17;;;;;;;6.22;3.22;;;13.60;99.90;;;;;;6009417;23;20228;-92
2021/05/15 17:57:50;;;;;;;7.32;3.65;;;13.60;99.90;;;;;;6030403;23;20015;-91
2021/05/15 18:00:18;;;;;;;9.43;3.83;;;13.60;99.90;;;;;;6006394;23;20344;-92
2021/05/15 18:02:47;;;;;;;10.52;3.80;;;13.60;99.90;;;;;;6030052;23;20015;-92
2021/05/15 18:05:16;;;;;;;10.00;4.45;;;13.60;99.90;;;;;;6006429;23;20018;-93
2021/05/15 18:08:21;;;;;;;;;;;13.50;99.90;;;;;;6008224;23;20018;-92
2021/05/15 18:10:53;;;;;;;5.25;2.30;;;13.30;99.90;;;;;;6054883;23;19953;-95
2021/05/15 18:13:23;;;;;;;6.28;2.70;;;13.20;99.90;;;;;;6022385;23;20030;-95
2021/05/15 18:15:58;;;;;;;3.72;1.75;;;13.10;99.90;;;;;;6080677;23;20046;-94
2021/05/15 18:18:28;;;;;;;3.88;1.90;;;13.10;99.90;;;;;;6082874;23;20026;-96
2021/05/15 18:20:58;;;;;;;4.50;2.42;;;13.00;99.90;;;;;;6036856;23;20054;-95
2021/05/15 18:23:27;;;;;;;6.47;2.45;;;12.90;99.90;;;;;;6021198;23;20025;-93
2021/05/15 18:26:00;;;;;;;6.97;2.63;;;12.90;99.90;;;;;;6040009;23;20011;-95
2021/05/15 18:28:29;;;;;;;7.15;2.83;;;12.90;99.90;;;;;;6036074;23;20046;-94
2021/05/15 18:30:58;;;;;;;4.65;2.25;;;12.90;99.90;;;;;;6057547;23;20035;-94
2021/05/15 19:21:34;;;;;;;3.13;1.60;;;11.50;99.90;;;;;;6088905;23;20018;-95
2021/05/15 19:24:08;;;;;;;3.33;1.65;;;11.70;99.90;;;;;;6048461;23;20145;-94
2021/05/15 19:26:40;;;;;;;3.63;1.93;;;11.70;99.90;;;;;;6047567;23;20023;-94
2021/05/15 19:29:08;;;;;;;3.93;2.10;;;11.80;99.90;;;;;;6072949;23;20017;-96
2021/05/15 19:31:36;;;;;;;1.90;1.27;;;11.80;99.90;;;;;;6073846;23;20283;-93
2021/05/15 19:34:04;;;;;;;3.20;1.33;;;11.80;99.90;;;;;;6050288;23;20013;-93
2021/05/15 20:37:54;;;;;;;1.40;0.60;;;11.50;99.90;;;;;;6020700;23;20013;-91
2021/05/15 20:40:22;;;;;;;1.58;0.70;;;11.50;99.90;;;;;;6132486;23;20005;-94
2021/05/15 20:42:50;;;;;;;2.47;1.00;;;11.50;99.90;;;;;;6084549;23;20012;-95
2021/05/15 20:45:19;;;;;;;1.15;0.70;;;11.50;99.90;;;;;;6137014;23;20020;-86
2021/05/15 20:47:49;;;;;;;1.98;1.33;;;11.50;99.90;;;;;;6059012;23;20025;-81
2021/05/15 20:50:20;;;;;;;4.55;1.60;;;11.60;99.90;;;;;;6035283;23;20329;-85
2021/05/15 20:52:48;;;;;;;2.53;1.00;;;11.60;99.90;;;;;;6079741;23;20006;-95
2021/05/15 20:55:18;;;;;;;3.30;0.70;;;11.60;99.90;;;;;;6104295;23;20006;-95
2021/05/15 20:57:46;;;;;;;1.13;0.70;;;11.60;99.90;;;;;;6079821;23;20006;-96
2021/05/15 21:00:15;;;;;;;1.83;0.80;;;11.60;99.90;;;;;;6077700;23;20075;-95
2021/05/15 21:02:44;;;;;;;4.10;0.70;;;11.70;99.90;;;;;;6096736;23;20006;-93
2021/05/15 21:05:15;;;;;;;2.50;1.10;;;11.80;99.90;;;;;;6071395;23;20007;-94
2021/05/15 21:07:43;;;;;;;2.72;1.13;;;11.70;99.90;;;;;;6097273;23;20007;-95
2021/05/15 21:10:14;;;;;;;1.33;0.77;;;11.70;99.90;;;;;;6072173;23;20006;-93
2021/05/15 21:15:39;;;;;;;1.88;0.82;;;12.00;99.90;;;;;;6104370;23;20049;-92
2021/05/15 21:39:30;;;;;;;2.55;0.80;;;12.60;99.90;;;;;;6135611;23;20018;-95
2021/05/15 21:44:50;;;;;;;3.55;0.90;;;12.70;99.90;;;;;;6047968;23;20006;-93
2021/05/15 21:53:10;;;;;;;1.50;0.60;;;12.70;99.90;;;;;;5981818;23;20011;-95
2021/05/15 21:55:40;;;;;;;13.23;0.90;;;12.70;99.90;;;;;;6027222;23;20044;-93
2021/05/15 21:58:09;;;;;;;2.05;0.93;;;12.60;99.90;;;;;;6073778;23;20007;-94
2021/05/15 22:06:28;;;;;;;3.05;0.88;;;12.60;99.90;;;;;;6067139;23;20006;-93
2021/05/15 22:08:56;;;;;;;11.97;1.27;;;12.60;99.90;;;;;;6106063;23;20010;-93
2021/05/15 22:11:25;;;;;;;2.75;0.98;;;12.60;99.90;;;;;;6132224;23;19998;-94
2021/05/15 22:13:54;;;;;;;3.67;0.90;;;12.60;99.90;;;;;;6132591;23;20010;-94
2021/05/15 22:16:24;;;;;;;4.07;1.10;;;12.70;99.90;;;;;;6004310;23;20034;-86
2021/05/15 22:18:53;;;;;;;2.58;1.05;;;12.70;99.90;;;;;;6054098;23;21413;-90
2021/05/15 22:27:15;;;;;;;2.33;1.00;;;12.60;99.90;;;;;;6100271;23;20259;-81
2021/05/15 22:35:34;;;;;;;2.92;0.98;;;12.40;99.90;;;;;;6062278;23;20018;-94
2021/05/15 22:38:24;;;;;;;2.80;1.00;;;12.20;99.90;;;;;;6071011;23;20027;-93
2021/05/15 22:40:57;;;;;;;1.77;0.80;;;12.20;99.90;;;;;;6108349;23;20014;-96
2021/05/15 22:43:28;;;;;;;5.30;0.90;;;12.20;99.90;;;;;;6131513;23;20005;-94
2021/05/15 22:45:56;;;;;;;2.40;1.08;;;12.20;99.90;;;;;;6131984;23;20009;-94
2021/05/15 22:48:31;;;;;;;;;;;12.20;99.90;;;;;;6130616;23;20021;-95
2021/05/15 22:51:00;;;;;;;1.65;0.85;;;12.10;99.90;;;;;;6130851;23;19925;-94
2021/05/15 22:53:28;;;;;;;2.17;1.10;;;12.10;99.90;;;;;;6129793;23;20018;-95
2021/05/15 22:55:56;;;;;;;1.67;0.75;;;12.20;99.90;;;;;;6107889;23;19998;-95
2021/05/15 23:28:22;;;;;;;3.22;1.02;;;11.90;99.90;;;;;;6110351;23;20041;-94
2021/05/15 23:30:50;;;;;;;2.65;0.90;;;11.80;99.90;;;;;;6057037;23;20018;-93
2021/05/15 23:36:14;;;;;;;1.98;1.00;;;11.80;99.90;;;;;;6039805;23;20022;-89
2021/05/15 23:41:45;;;;;;;2.00;1.08;;;11.70;99.90;;;;;;6027328;23;20047;-92
2021/05/15 23:47:10;;;;;;;4.45;0.98;;;11.60;99.90;;;;;;6087763;23;20013;-94
